San Vicente la Barquera

latitud = 43° 23' 40''N | longitud = 004° 23' 27''W
40 metros sobre el nivel del mar | datos mensuales

Fecha, hora, temperatura, viento dirección y velocidad, humedad y presión.

  • 14-10-2018 19:00:00 | 15.30°C | Oeste |21.00 km/h | 78.00% | 1005.00 hPa
  • 14-10-2018 18:00:00 | 15.80°C | Sudoeste |2.00 km/h | 75.00% | 1004.70 hPa
  • 14-10-2018 17:00:00 | 15.90°C | Sudoeste |3.00 km/h | 75.00% | 1004.80 hPa
  • 14-10-2018 16:00:00 | 15.30°C | Oeste |8.00 km/h | 76.00% | 1005.00 hPa
  • 14-10-2018 15:00:00 | 14.30°C | Oeste |16.00 km/h | 81.00% | 1005.10 hPa
  • 14-10-2018 14:00:00 | 14.50°C | Oeste |21.00 km/h | 81.00% | 1004.90 hPa
  • 14-10-2018 13:00:00 | 13.90°C | Oeste |20.00 km/h | 85.00% | 1004.20 hPa
  • 14-10-2018 12:00:00 | 13.30°C | Oeste |12.00 km/h | 88.00% | 1003.90 hPa
  • 14-10-2018 11:00:00 | 12.60°C | Oeste |21.00 km/h | 90.00% | 1003.40 hPa
  • 14-10-2018 10:00:00 | 12.80°C | Oeste |30.00 km/h | 91.00% | 1002.30 hPa
  • 14-10-2018 09:00:00 | 13.10°C | Oeste |45.00 km/h | 91.00% | 1000.90 hPa
  • 14-10-2018 08:00:00 | 14.00°C | Oeste |33.00 km/h | 91.00% | 999.70 hPa
  • 14-10-2018 07:00:00 | 14.50°C | Oeste |18.00 km/h | 91.00% | 998.60 hPa
  • 14-10-2018 06:00:00 | 14.60°C | Oeste |3.00 km/h | 91.00% | 998.40 hPa
  • 14-10-2018 05:00:00 | 14.50°C | Oeste |5.00 km/h | 92.00% | 998.90 hPa
  • 14-10-2018 04:00:00 | 14.70°C | Oeste |19.00 km/h | 92.00% | 1000.10 hPa
  • 14-10-2018 03:00:00 | 15.40°C | Oeste |30.00 km/h | 91.00% | 1000.30 hPa
  • 14-10-2018 02:00:00 | 16.80°C | Oeste |30.00 km/h | 91.00% | 1000.50 hPa
  • 14-10-2018 01:00:00 | 17.20°C | Oeste |46.00 km/h | 90.00% | 999.70 hPa
  • 14-10-2018 00:00:00 | 18.40°C | Oeste |45.00 km/h | 86.00% | 999.80 hPa
  • 13-10-2018 23:00:00 | 21.30°C | Sur |12.00 km/h | 67.00% | 999.60 hPa
  • 13-10-2018 22:00:00 | 20.40°C | Sur |13.00 km/h | 78.00% | 1000.70 hPa
  • 13-10-2018 21:00:00 | 20.90°C | Sur |10.00 km/h | 73.00% | 1002.30 hPa
  • 13-10-2018 20:00:00 | 22.50°C | Sudoeste |9.00 km/h | 60.00% | 1003.10 hPa